sensor_id;sensor_type;location;lat;lon;timestamp;pressure;altitude;pressure_sealevel;temperature;humidity
64139;BME280;50435;43.700;-79.318;2022-11-03T00:01:50;101378.73;;;11.32;54.41
64139;BME280;50435;43.700;-79.318;2022-11-03T00:04:20;101380.41;;;10.86;54.29
64139;BME280;50435;43.700;-79.318;2022-11-03T00:06:49;101384.76;;;11.24;54.49
64139;BME280;50435;43.700;-79.318;2022-11-03T00:09:18;101382.97;;;10.91;54.62
64139;BME280;50435;43.700;-79.318;2022-11-03T00:11:48;101387.27;;;11.14;54.73
64139;BME280;50435;43.700;-79.318;2022-11-03T00:14:17;101390.46;;;10.78;54.89
64139;BME280;50435;43.700;-79.318;2022-11-03T00:16:45;101391.21;;;11.10;54.76
64139;BME280;50435;43.700;-79.318;2022-11-03T00:19:13;101396.23;;;11.04;54.80
64139;BME280;50435;43.700;-79.318;2022-11-03T00:21:41;101397.48;;;11.16;54.65
64139;BME280;50435;43.700;-79.318;2022-11-03T00:24:09;101398.52;;;10.79;54.80
64139;BME280;50435;43.700;-79.318;2022-11-03T00:26:37;101398.37;;;11.10;54.66
64139;BME280;50435;43.700;-79.318;2022-11-03T00:29:07;101401.10;;;11.07;54.71
64139;BME280;50435;43.700;-79.318;2022-11-03T00:31:37;101408.43;;;11.08;54.66
64139;BME280;50435;43.700;-79.318;2022-11-03T00:34:05;101410.38;;;11.24;54.31
64139;BME280;50435;43.700;-79.318;2022-11-03T00:36:35;101406.45;;;11.21;54.36
64139;BME280;50435;43.700;-79.318;2022-11-03T00:39:04;101406.90;;;11.07;54.53
64139;BME280;50435;43.700;-79.318;2022-11-03T00:41:32;101409.53;;;11.35;54.43
64139;BME280;50435;43.700;-79.318;2022-11-03T00:44:00;101405.14;;;10.86;54.44
64139;BME280;50435;43.700;-79.318;2022-11-03T00:46:27;101403.71;;;10.93;54.26
64139;BME280;50435;43.700;-79.318;2022-11-03T00:48:55;101403.39;;;11.08;54.53
64139;BME280;50435;43.700;-79.318;2022-11-03T00:51:25;101403.45;;;10.93;54.83
64139;BME280;50435;43.700;-79.318;2022-11-03T00:53:54;101405.11;;;10.64;54.81
64139;BME280;50435;43.700;-79.318;2022-11-03T00:56:24;101408.02;;;10.60;55.02
64139;BME280;50435;43.700;-79.318;2022-11-03T00:58:53;101411.83;;;10.93;54.80
64139;BME280;50435;43.700;-79.318;2022-11-03T01:01:22;101415.15;;;11.03;54.63
64139;BME280;50435;43.700;-79.318;2022-11-03T01:03:51;101417.22;;;11.03;54.60
64139;BME280;50435;43.700;-79.318;2022-11-03T01:06:19;101415.86;;;10.99;54.73
64139;BME280;50435;43.700;-79.318;2022-11-03T01:08:46;101411.63;;;11.06;54.53
64139;BME280;50435;43.700;-79.318;2022-11-03T01:11:17;101407.72;;;10.82;54.46
64139;BME280;50435;43.700;-79.318;2022-11-03T01:13:46;101406.98;;;10.98;54.64
64139;BME280;50435;43.700;-79.318;2022-11-03T01:16:13;101401.28;;;11.07;54.44
64139;BME280;50435;43.700;-79.318;2022-11-03T01:18:40;101402.86;;;11.24;54.51
64139;BME280;50435;43.700;-79.318;2022-11-03T01:21:07;101402.29;;;10.50;54.67
64139;BME280;50435;43.700;-79.318;2022-11-03T01:23:35;101401.52;;;10.85;54.88
64139;BME280;50435;43.700;-79.318;2022-11-03T01:26:03;101398.09;;;11.05;54.96
64139;BME280;50435;43.700;-79.318;2022-11-03T01:28:33;101403.22;;;10.85;54.92
64139;BME280;50435;43.700;-79.318;2022-11-03T01:31:03;101406.27;;;10.98;54.61
64139;BME280;50435;43.700;-79.318;2022-11-03T01:33:32;101409.03;;;10.97;54.66
64139;BME280;50435;43.700;-79.318;2022-11-03T01:35:59;101411.02;;;10.50;54.98
64139;BME280;50435;43.700;-79.318;2022-11-03T01:38:30;101412.18;;;10.92;54.74
64139;BME280;50435;43.700;-79.318;2022-11-03T01:40:58;101417.78;;;10.65;54.70
64139;BME280;50435;43.700;-79.318;2022-11-03T01:43:26;101417.46;;;10.56;54.91
64139;BME280;50435;43.700;-79.318;2022-11-03T01:46:01;101415.00;;;10.63;54.81
64139;BME280;50435;43.700;-79.318;2022-11-03T01:48:30;101410.98;;;10.71;55.13
64139;BME280;50435;43.700;-79.318;2022-11-03T01:50:58;101410.10;;;10.82;54.94
64139;BME280;50435;43.700;-79.318;2022-11-03T01:53:26;101410.90;;;10.83;54.84
64139;BME280;50435;43.700;-79.318;2022-11-03T01:55:57;101406.42;;;10.77;54.92
64139;BME280;50435;43.700;-79.318;2022-11-03T01:58:29;101405.61;;;10.76;54.95
64139;BME280;50435;43.700;-79.318;2022-11-03T02:00:57;101401.71;;;10.52;54.95
64139;BME280;50435;43.700;-79.318;2022-11-03T02:03:31;101401.90;;;10.46;55.12
64139;BME280;50435;43.700;-79.318;2022-11-03T02:06:01;101399.66;;;10.60;55.29
64139;BME280;50435;43.700;-79.318;2022-11-03T02:08:33;101399.23;;;10.60;55.33
64139;BME280;50435;43.700;-79.318;2022-11-03T02:11:02;101400.66;;;10.56;55.32
64139;BME280;50435;43.700;-79.318;2022-11-03T02:13:29;101396.99;;;10.78;55.40
64139;BME280;50435;43.700;-79.318;2022-11-03T02:15:58;101394.38;;;10.66;55.22
64139;BME280;50435;43.700;-79.318;2022-11-03T02:18:30;101392.75;;;10.55;55.39
64139;BME280;50435;43.700;-79.318;2022-11-03T02:21:05;101394.77;;;10.57;55.43
64139;BME280;50435;43.700;-79.318;2022-11-03T02:23:39;101397.05;;;10.51;55.51
64139;BME280;50435;43.700;-79.318;2022-11-03T02:26:10;101401.50;;;10.57;55.34
64139;BME280;50435;43.700;-79.318;2022-11-03T02:28:39;101401.89;;;10.53;55.44
64139;BME280;50435;43.700;-79.318;2022-11-03T02:31:11;101402.45;;;10.75;55.44
64139;BME280;50435;43.700;-79.318;2022-11-03T02:33:47;101404.47;;;10.53;55.48
64139;BME280;50435;43.700;-79.318;2022-11-03T02:36:21;101406.65;;;10.49;55.51
64139;BME280;50435;43.700;-79.318;2022-11-03T02:38:55;101402.66;;;10.57;55.31
64139;BME280;50435;43.700;-79.318;2022-11-03T02:41:25;101402.98;;;10.48;55.49
64139;BME280;50435;43.700;-79.318;2022-11-03T02:43:55;101405.00;;;10.52;55.47
64139;BME280;50435;43.700;-79.318;2022-11-03T02:46:23;101403.28;;;10.73;55.47
64139;BME280;50435;43.700;-79.318;2022-11-03T02:48:52;101401.42;;;10.52;55.39
64139;BME280;50435;43.700;-79.318;2022-11-03T02:51:20;101402.98;;;10.55;55.26
64139;BME280;50435;43.700;-79.318;2022-11-03T02:53:52;101401.52;;;10.49;55.41
64139;BME280;50435;43.700;-79.318;2022-11-03T02:56:23;101402.91;;;10.37;55.71
64139;BME280;50435;43.700;-79.318;2022-11-03T02:58:56;101399.81;;;10.74;55.43
64139;BME280;50435;43.700;-79.318;2022-11-03T03:01:29;101400.06;;;10.38;55.66
64139;BME280;50435;43.700;-79.318;2022-11-03T03:04:01;101397.91;;;10.51;55.33
64139;BME280;50435;43.700;-79.318;2022-11-03T03:06:33;101398.40;;;10.38;55.61
64139;BME280;50435;43.700;-79.318;2022-11-03T03:09:05;101400.74;;;10.49;55.37
64139;BME280;50435;43.700;-79.318;2022-11-03T03:11:34;101403.10;;;10.64;55.53
64139;BME280;50435;43.700;-79.318;2022-11-03T03:14:04;101403.81;;;10.64;55.51
64139;BME280;50435;43.700;-79.318;2022-11-03T03:16:36;101402.07;;;10.46;55.37
64139;BME280;50435;43.700;-79.318;2022-11-03T03:19:25;101402.94;;;10.12;55.52
64139;BME280;50435;43.700;-79.318;2022-11-03T03:21:57;101399.99;;;10.56;55.16
64139;BME280;50435;43.700;-79.318;2022-11-03T03:24:39;101402.23;;;10.24;55.19
64139;BME280;50435;43.700;-79.318;2022-11-03T03:27:12;101404.57;;;10.50;55.24
64139;BME280;50435;43.700;-79.318;2022-11-03T03:29:46;101398.07;;;10.62;55.45
64139;BME280;50435;43.700;-79.318;2022-11-03T03:32:19;101395.38;;;10.35;55.53
64139;BME280;50435;43.700;-79.318;2022-11-03T03:34:49;101395.62;;;10.90;55.26
64139;BME280;50435;43.700;-79.318;2022-11-03T03:37:18;101396.76;;;10.70;55.27
64139;BME280;50435;43.700;-79.318;2022-11-03T03:39:51;101396.97;;;10.41;55.36
64139;BME280;50435;43.700;-79.318;2022-11-03T03:42:21;101395.70;;;10.65;55.32
64139;BME280;50435;43.700;-79.318;2022-11-03T03:44:52;101395.78;;;10.47;55.23
64139;BME280;50435;43.700;-79.318;2022-11-03T03:47:23;101393.82;;;10.45;55.29
64139;BME280;50435;43.700;-79.318;2022-11-03T03:49:52;101394.88;;;10.43;55.30
64139;BME280;50435;43.700;-79.318;2022-11-03T03:52:20;101391.08;;;10.68;55.18
64139;BME280;50435;43.700;-79.318;2022-11-03T03:54:48;101387.57;;;10.33;55.46
64139;BME280;50435;43.700;-79.318;2022-11-03T03:57:17;101389.31;;;10.48;55.67
64139;BME280;50435;43.700;-79.318;2022-11-03T03:59:46;101386.50;;;10.37;55.33
64139;BME280;50435;43.700;-79.318;2022-11-03T04:02:15;101384.46;;;10.47;55.12
64139;BME280;50435;43.700;-79.318;2022-11-03T04:04:42;101383.36;;;10.45;55.16
64139;BME280;50435;43.700;-79.318;2022-11-03T04:07:10;101378.06;;;10.47;55.15
64139;BME280;50435;43.700;-79.318;2022-11-03T04:09:38;101377.09;;;10.45;55.13
64139;BME280;50435;43.700;-79.318;2022-11-03T04:12:06;101370.40;;;10.60;55.32
64139;BME280;50435;43.700;-79.318;2022-11-03T04:14:34;101367.17;;;10.56;54.87
64139;BME280;50435;43.700;-79.318;2022-11-03T04:17:01;101367.83;;;10.40;55.26
64139;BME280;50435;43.700;-79.318;2022-11-03T04:19:29;101366.10;;;10.38;55.28
64139;BME280;50435;43.700;-79.318;2022-11-03T04:21:56;101361.41;;;10.59;55.28
64139;BME280;50435;43.700;-79.318;2022-11-03T04:24:24;101356.99;;;10.31;55.45
64139;BME280;50435;43.700;-79.318;2022-11-03T04:26:52;101355.95;;;10.55;55.30
64139;BME280;50435;43.700;-79.318;2022-11-03T04:29:20;101350.64;;;10.28;55.43
64139;BME280;50435;43.700;-79.318;2022-11-03T04:31:47;101350.33;;;10.46;55.53
64139;BME280;50435;43.700;-79.318;2022-11-03T04:34:15;101347.39;;;10.58;55.28
64139;BME280;50435;43.700;-79.318;2022-11-03T04:36:42;101350.45;;;10.45;55.54
64139;BME280;50435;43.700;-79.318;2022-11-03T04:39:15;101348.91;;;10.29;55.39
64139;BME280;50435;43.700;-79.318;2022-11-03T04:41:44;101348.34;;;10.37;55.21
64139;BME280;50435;43.700;-79.318;2022-11-03T04:44:14;101342.67;;;10.42;55.17
64139;BME280;50435;43.700;-79.318;2022-11-03T04:46:43;101339.97;;;10.47;55.43
64139;BME280;50435;43.700;-79.318;2022-11-03T04:49:15;101332.35;;;10.27;55.43
64139;BME280;50435;43.700;-79.318;2022-11-03T04:51:47;101334.66;;;10.26;55.43
64139;BME280;50435;43.700;-79.318;2022-11-03T04:54:18;101335.81;;;10.28;55.40
64139;BME280;50435;43.700;-79.318;2022-11-03T04:56:47;101333.27;;;10.27;55.37
64139;BME280;50435;43.700;-79.318;2022-11-03T04:59:15;101332.31;;;10.50;55.34
64139;BME280;50435;43.700;-79.318;2022-11-03T05:01:44;101329.98;;;10.31;55.27
64139;BME280;50435;43.700;-79.318;2022-11-03T05:04:13;101326.15;;;10.27;55.39
64139;BME280;50435;43.700;-79.318;2022-11-03T05:06:45;101324.99;;;10.30;55.39
64139;BME280;50435;43.700;-79.318;2022-11-03T05:09:17;101328.41;;;10.29;55.28
64139;BME280;50435;43.700;-79.318;2022-11-03T05:11:47;101327.30;;;10.53;55.36
64139;BME280;50435;43.700;-79.318;2022-11-03T05:14:17;101328.43;;;10.37;55.17
64139;BME280;50435;43.700;-79.318;2022-11-03T05:16:47;101326.03;;;10.76;55.26
64139;BME280;50435;43.700;-79.318;2022-11-03T05:19:18;101325.94;;;10.36;55.12
64139;BME280;50435;43.700;-79.318;2022-11-03T05:21:47;101325.33;;;10.29;55.32
64139;BME280;50435;43.700;-79.318;2022-11-03T05:24:18;101326.47;;;10.24;55.36
64139;BME280;50435;43.700;-79.318;2022-11-03T05:26:46;101325.90;;;10.28;55.21
64139;BME280;50435;43.700;-79.318;2022-11-03T05:29:18;101323.36;;;10.33;55.16
64139;BME280;50435;43.700;-79.318;2022-11-03T05:31:47;101323.76;;;10.36;55.06
64139;BME280;50435;43.700;-79.318;2022-11-03T05:34:34;101323.83;;;10.61;55.02
64139;BME280;50435;43.700;-79.318;2022-11-03T05:37:20;101322.96;;;10.41;55.06
64139;BME280;50435;43.700;-79.318;2022-11-03T05:39:50;101322.89;;;10.73;55.18
64139;BME280;50435;43.700;-79.318;2022-11-03T05:42:25;101324.00;;;10.54;55.03
64139;BME280;50435;43.700;-79.318;2022-11-03T05:44:54;101325.27;;;10.35;55.10
64139;BME280;50435;43.700;-79.318;2022-11-03T05:47:23;101323.75;;;10.29;55.13
64139;BME280;50435;43.700;-79.318;2022-11-03T05:49:54;101324.79;;;10.36;55.04
64139;BME280;50435;43.700;-79.318;2022-11-03T05:52:27;101326.25;;;10.39;54.94
64139;BME280;50435;43.700;-79.318;2022-11-03T05:54:57;101327.23;;;10.40;54.94
64139;BME280;50435;43.700;-79.318;2022-11-03T05:57:27;101322.42;;;10.57;54.98
64139;BME280;50435;43.700;-79.318;2022-11-03T05:59:55;101324.30;;;10.49;55.18
64139;BME280;50435;43.700;-79.318;2022-11-03T06:02:34;101326.82;;;10.56;55.09
64139;BME280;50435;43.700;-79.318;2022-11-03T06:05:11;101331.11;;;10.35;54.99
64139;BME280;50435;43.700;-79.318;2022-11-03T06:07:41;101325.23;;;10.75;55.03
64139;BME280;50435;43.700;-79.318;2022-11-03T06:10:22;101329.78;;;10.29;55.18
64139;BME280;50435;43.700;-79.318;2022-11-03T06:12:50;101327.63;;;10.26;55.17
64139;BME280;50435;43.700;-79.318;2022-11-03T06:15:27;101329.29;;;10.25;55.21
64139;BME280;50435;43.700;-79.318;2022-11-03T06:17:55;101329.85;;;10.24;55.24
64139;BME280;50435;43.700;-79.318;2022-11-03T06:20:23;101329.91;;;10.33;55.11
64139;BME280;50435;43.700;-79.318;2022-11-03T06:22:53;101325.36;;;10.56;55.04
64139;BME280;50435;43.700;-79.318;2022-11-03T06:25:27;101321.04;;;10.56;54.98
64139;BME280;50435;43.700;-79.318;2022-11-03T06:28:00;101322.63;;;10.76;55.07
64139;BME280;50435;43.700;-79.318;2022-11-03T06:30:30;101316.93;;;10.39;54.93
64139;BME280;50435;43.700;-79.318;2022-11-03T06:33:00;101314.40;;;10.79;54.99
64139;BME280;50435;43.700;-79.318;2022-11-03T06:35:29;101314.10;;;10.81;54.95
64139;BME280;50435;43.700;-79.318;2022-11-03T06:37:57;101314.42;;;10.83;54.91
64139;BME280;50435;43.700;-79.318;2022-11-03T06:40:40;101305.70;;;10.38;54.88
64139;BME280;50435;43.700;-79.318;2022-11-03T06:43:17;101304.33;;;10.24;55.18
64139;BME280;50435;43.700;-79.318;2022-11-03T06:45:50;101301.68;;;10.35;54.91
64139;BME280;50435;43.700;-79.318;2022-11-03T06:48:23;101304.11;;;10.24;55.11
64139;BME280;50435;43.700;-79.318;2022-11-03T06:50:52;101302.87;;;10.51;55.07
64139;BME280;50435;43.700;-79.318;2022-11-03T06:53:22;101299.08;;;10.29;55.08
64139;BME280;50435;43.700;-79.318;2022-11-03T06:55:51;101296.14;;;10.30;55.05
64139;BME280;50435;43.700;-79.318;2022-11-03T06:58:24;101296.30;;;10.55;54.94
64139;BME280;50435;43.700;-79.318;2022-11-03T07:00:55;101302.03;;;10.38;54.87
64139;BME280;50435;43.700;-79.318;2022-11-03T07:03:26;101302.87;;;10.34;54.94
64139;BME280;50435;43.700;-79.318;2022-11-03T07:05:56;101304.47;;;10.19;55.26
64139;BME280;50435;43.700;-79.318;2022-11-03T07:08:28;101303.96;;;10.51;55.00
64139;BME280;50435;43.700;-79.318;2022-11-03T07:11:03;101302.88;;;10.21;55.24
64139;BME280;50435;43.700;-79.318;2022-11-03T07:13:33;101302.99;;;10.51;55.10
64139;BME280;50435;43.700;-79.318;2022-11-03T07:16:00;101303.77;;;10.28;55.04
64139;BME280;50435;43.700;-79.318;2022-11-03T07:18:33;101298.21;;;10.51;55.02
64139;BME280;50435;43.700;-79.318;2022-11-03T07:21:18;101297.58;;;10.26;55.02
64139;BME280;50435;43.700;-79.318;2022-11-03T07:23:50;101305.24;;;10.16;55.32
64139;BME280;50435;43.700;-79.318;2022-11-03T07:26:18;101303.73;;;10.04;54.93
64139;BME280;50435;43.700;-79.318;2022-11-03T07:28:46;101298.32;;;10.27;55.03
64139;BME280;50435;43.700;-79.318;2022-11-03T07:31:17;101287.81;;;10.44;55.16
64139;BME280;50435;43.700;-79.318;2022-11-03T07:33:46;101286.66;;;10.45;55.18
64139;BME280;50435;43.700;-79.318;2022-11-03T07:36:17;101284.71;;;10.27;55.03
64139;BME280;50435;43.700;-79.318;2022-11-03T07:38:48;101280.76;;;10.48;55.04
64139;BME280;50435;43.700;-79.318;2022-11-03T07:41:19;101287.98;;;10.22;55.05
64139;BME280;50435;43.700;-79.318;2022-11-03T07:43:52;101289.61;;;10.12;55.42
64139;BME280;50435;43.700;-79.318;2022-11-03T07:46:21;101288.81;;;10.24;55.63
64139;BME280;50435;43.700;-79.318;2022-11-03T07:48:51;101286.75;;;10.43;55.25
64139;BME280;50435;43.700;-79.318;2022-11-03T07:51:22;101288.62;;;10.67;55.13
64139;BME280;50435;43.700;-79.318;2022-11-03T07:53:52;101285.43;;;10.42;55.21
64139;BME280;50435;43.700;-79.318;2022-11-03T07:56:24;101289.14;;;10.47;55.09
64139;BME280;50435;43.700;-79.318;2022-11-03T07:58:57;101303.39;;;10.41;55.23
64139;BME280;50435;43.700;-79.318;2022-11-03T08:01:26;101298.96;;;10.68;55.12
64139;BME280;50435;43.700;-79.318;2022-11-03T08:03:58;101299.78;;;10.36;55.25
64139;BME280;50435;43.700;-79.318;2022-11-03T08:06:26;101301.57;;;10.45;55.03
64139;BME280;50435;43.700;-79.318;2022-11-03T08:08:54;101300.20;;;10.43;55.06
64139;BME280;50435;43.700;-79.318;2022-11-03T08:11:22;101298.43;;;10.20;55.05
64139;BME280;50435;43.700;-79.318;2022-11-03T08:13:50;101290.82;;;10.24;54.98
64139;BME280;50435;43.700;-79.318;2022-11-03T08:16:18;101294.18;;;10.14;55.19
64139;BME280;50435;43.700;-79.318;2022-11-03T08:18:46;101292.66;;;10.14;55.22
64139;BME280;50435;43.700;-79.318;2022-11-03T08:21:14;101290.99;;;10.13;55.15
64139;BME280;50435;43.700;-79.318;2022-11-03T08:23:41;101282.27;;;10.60;55.18
64139;BME280;50435;43.700;-79.318;2022-11-03T08:26:08;101291.62;;;9.63;55.12
64139;BME280;50435;43.700;-79.318;2022-11-03T08:28:36;101287.07;;;10.21;55.01
64139;BME280;50435;43.700;-79.318;2022-11-03T08:31:04;101282.79;;;10.37;55.16
64139;BME280;50435;43.700;-79.318;2022-11-03T08:33:32;101282.24;;;10.59;55.17
64139;BME280;50435;43.700;-79.318;2022-11-03T08:36:00;101279.37;;;10.60;55.09
64139;BME280;50435;43.700;-79.318;2022-11-03T08:38:28;101285.14;;;10.30;55.24
64139;BME280;50435;43.700;-79.318;2022-11-03T08:40:57;101283.74;;;10.55;55.20
64139;BME280;50435;43.700;-79.318;2022-11-03T08:43:24;101282.06;;;9.96;55.52
64139;BME280;50435;43.700;-79.318;2022-11-03T08:45:52;101282.07;;;9.92;55.50
64139;BME280;50435;43.700;-79.318;2022-11-03T08:48:20;101284.61;;;10.24;55.36
64139;BME280;50435;43.700;-79.318;2022-11-03T08:50:49;101281.98;;;10.25;55.79
64139;BME280;50435;43.700;-79.318;2022-11-03T08:53:16;101289.44;;;10.35;55.57
64139;BME280;50435;43.700;-79.318;2022-11-03T08:55:44;101287.19;;;10.05;55.30
64139;BME280;50435;43.700;-79.318;2022-11-03T08:58:11;101282.00;;;10.76;53.75
64139;BME280;50435;43.700;-79.318;2022-11-03T09:00:39;101285.71;;;10.64;53.37
64139;BME280;50435;43.700;-79.318;2022-11-03T09:03:06;101288.24;;;10.58;53.46
64139;BME280;50435;43.700;-79.318;2022-11-03T09:05:33;101287.89;;;10.72;53.12
64139;BME280;50435;43.700;-79.318;2022-11-03T09:08:00;101294.37;;;10.58;53.39
64139;BME280;50435;43.700;-79.318;2022-11-03T09:10:28;101297.39;;;10.90;53.28
64139;BME280;50435;43.700;-79.318;2022-11-03T09:12:56;101297.07;;;10.91;53.15
64139;BME280;50435;43.700;-79.318;2022-11-03T09:15:23;101294.72;;;10.78;52.95
64139;BME280;50435;43.700;-79.318;2022-11-03T09:17:50;101295.60;;;10.57;52.86
64139;BME280;50435;43.700;-79.318;2022-11-03T09:20:18;101301.25;;;10.62;53.28
64139;BME280;50435;43.700;-79.318;2022-11-03T09:22:45;101303.25;;;10.71;52.95
64139;BME280;50435;43.700;-79.318;2022-11-03T09:25:13;101297.02;;;10.71;53.04
64139;BME280;50435;43.700;-79.318;2022-11-03T09:27:41;101296.41;;;10.95;52.98
64139;BME280;50435;43.700;-79.318;2022-11-03T09:30:10;101296.19;;;10.29;53.59
64139;BME280;50435;43.700;-79.318;2022-11-03T09:32:38;101293.16;;;10.90;53.21
64139;BME280;50435;43.700;-79.318;2022-11-03T09:35:06;101296.79;;;10.84;53.39
64139;BME280;50435;43.700;-79.318;2022-11-03T09:37:33;101300.77;;;10.63;53.30
64139;BME280;50435;43.700;-79.318;2022-11-03T09:40:02;101304.50;;;10.88;53.22
64139;BME280;50435;43.700;-79.318;2022-11-03T09:42:30;101303.10;;;10.87;53.21
64139;BME280;50435;43.700;-79.318;2022-11-03T09:44:59;101302.30;;;10.68;53.05
64139;BME280;50435;43.700;-79.318;2022-11-03T09:47:31;101308.23;;;10.41;54.17
64139;BME280;50435;43.700;-79.318;2022-11-03T09:49:59;101311.44;;;10.39;54.83
64139;BME280;50435;43.700;-79.318;2022-11-03T09:52:28;101311.98;;;10.02;55.16
64139;BME280;50435;43.700;-79.318;2022-11-03T09:54:57;101308.56;;;10.09;55.03
64139;BME280;50435;43.700;-79.318;2022-11-03T09:57:26;101307.68;;;10.17;55.33
64139;BME280;50435;43.700;-79.318;2022-11-03T09:59:54;101308.83;;;10.28;55.12
64139;BME280;50435;43.700;-79.318;2022-11-03T10:02:25;101308.20;;;10.20;55.16
64139;BME280;50435;43.700;-79.318;2022-11-03T10:04:56;101304.09;;;10.13;55.43
64139;BME280;50435;43.700;-79.318;2022-11-03T10:07:25;101300.64;;;10.13;55.41
64139;BME280;50435;43.700;-79.318;2022-11-03T10:09:56;101299.44;;;10.16;55.22
64139;BME280;50435;43.700;-79.318;2022-11-03T10:12:26;101300.99;;;10.45;55.27
64139;BME280;50435;43.700;-79.318;2022-11-03T10:14:56;101308.68;;;10.38;55.36
64139;BME280;50435;43.700;-79.318;2022-11-03T10:17:28;101310.41;;;10.34;55.55
64139;BME280;50435;43.700;-79.318;2022-11-03T10:19:57;101308.72;;;9.91;55.41
64139;BME280;50435;43.700;-79.318;2022-11-03T10:22:24;101308.29;;;10.09;55.55
64139;BME280;50435;43.700;-79.318;2022-11-03T10:25:25;101309.82;;;10.07;55.58
64139;BME280;50435;43.700;-79.318;2022-11-03T10:28:11;101309.83;;;10.31;55.54
64139;BME280;50435;43.700;-79.318;2022-11-03T10:30:47;101306.29;;;10.10;55.54
64139;BME280;50435;43.700;-79.318;2022-11-03T10:33:25;101298.72;;;10.22;55.73
64139;BME280;50435;43.700;-79.318;2022-11-03T10:35:53;101294.93;;;10.36;55.49
64139;BME280;50435;43.700;-79.318;2022-11-03T10:38:25;101287.08;;;10.15;55.38
64139;BME280;50435;43.700;-79.318;2022-11-03T10:40:54;101285.57;;;10.38;55.41
64139;BME280;50435;43.700;-79.318;2022-11-03T10:43:21;101285.71;;;10.33;55.44
64139;BME280;50435;43.700;-79.318;2022-11-03T10:45:49;101284.67;;;10.30;55.58
64139;BME280;50435;43.700;-79.318;2022-11-03T10:48:16;101286.24;;;10.32;55.59
64139;BME280;50435;43.700;-79.318;2022-11-03T10:50:44;101290.27;;;10.11;55.43
64139;BME280;50435;43.700;-79.318;2022-11-03T10:53:17;101293.83;;;9.93;55.44
64139;BME280;50435;43.700;-79.318;2022-11-03T10:55:46;101299.92;;;10.09;55.49
64139;BME280;50435;43.700;-79.318;2022-11-03T10:58:14;101303.32;;;10.07;55.54
64139;BME280;50435;43.700;-79.318;2022-11-03T11:00:41;101300.79;;;10.28;55.55
64139;BME280;50435;43.700;-79.318;2022-11-03T11:03:11;101301.05;;;9.88;55.50
64139;BME280;50435;43.700;-79.318;2022-11-03T11:05:44;101297.01;;;10.17;55.31
64139;BME280;50435;43.700;-79.318;2022-11-03T11:08:13;101293.41;;;10.11;55.41
64139;BME280;50435;43.700;-79.318;2022-11-03T11:10:43;101295.67;;;10.29;55.55
64139;BME280;50435;43.700;-79.318;2022-11-03T11:13:24;101292.38;;;9.89;55.38
64139;BME280;50435;43.700;-79.318;2022-11-03T11:15:54;101295.09;;;10.06;55.54
64139;BME280;50435;43.700;-79.318;2022-11-03T11:19:01;101293.90;;;9.80;55.64
64139;BME280;50435;43.700;-79.318;2022-11-03T11:22:01;101290.70;;;9.98;55.66
64139;BME280;50435;43.700;-79.318;2022-11-03T11:25:11;101290.36;;;10.18;55.33
64139;BME280;50435;43.700;-79.318;2022-11-03T11:27:53;101291.82;;;10.34;55.42
64139;BME280;50435;43.700;-79.318;2022-11-03T11:30:55;101289.99;;;10.20;55.28
64139;BME280;50435;43.700;-79.318;2022-11-03T11:33:24;101287.27;;;10.05;55.50
64139;BME280;50435;43.700;-79.318;2022-11-03T11:36:19;101282.76;;;10.42;55.15
64139;BME280;50435;43.700;-79.318;2022-11-03T11:39:03;101280.68;;;10.30;55.46
64139;BME280;50435;43.700;-79.318;2022-11-03T11:43:24;101282.51;;;9.97;55.28
64139;BME280;50435;43.700;-79.318;2022-11-03T11:46:37;101278.28;;;10.16;55.27
64139;BME280;50435;43.700;-79.318;2022-11-03T11:49:21;101281.68;;;10.29;55.50
64139;BME280;50435;43.700;-79.318;2022-11-03T11:51:49;101289.60;;;10.46;55.15
64139;BME280;50435;43.700;-79.318;2022-11-03T11:54:19;101291.13;;;10.22;55.20
64139;BME280;50435;43.700;-79.318;2022-11-03T11:56:48;101290.42;;;9.94;55.37
64139;BME280;50435;43.700;-79.318;2022-11-03T11:59:18;101296.12;;;9.99;55.33
64139;BME280;50435;43.700;-79.318;2022-11-03T12:01:49;101297.83;;;10.47;55.22
64139;BME280;50435;43.700;-79.318;2022-11-03T12:04:21;101305.39;;;10.02;55.11
64139;BME280;50435;43.700;-79.318;2022-11-03T12:06:48;101308.98;;;10.54;55.06
64139;BME280;50435;43.700;-79.318;2022-11-03T12:09:18;101312.51;;;10.53;55.06
64139;BME280;50435;43.700;-79.318;2022-11-03T12:11:48;101319.27;;;10.22;55.21
64139;BME280;50435;43.700;-79.318;2022-11-03T12:14:24;101325.04;;;10.21;55.25
64139;BME280;50435;43.700;-79.318;2022-11-03T12:16:52;101325.25;;;10.22;55.28
64139;BME280;50435;43.700;-79.318;2022-11-03T12:19:37;101328.83;;;10.02;55.16
64139;BME280;50435;43.700;-79.318;2022-11-03T12:22:08;101335.57;;;10.15;55.38
64139;BME280;50435;43.700;-79.318;2022-11-03T12:24:44;101339.91;;;10.31;55.04
64139;BME280;50435;43.700;-79.318;2022-11-03T12:27:44;101348.61;;;10.56;55.04
64139;BME280;50435;43.700;-79.318;2022-11-03T12:30:15;101354.43;;;9.94;55.40
64139;BME280;50435;43.700;-79.318;2022-11-03T12:32:42;101363.89;;;10.31;55.18
64139;BME280;50435;43.700;-79.318;2022-11-03T12:35:10;101361.99;;;10.07;55.15
64139;BME280;50435;43.700;-79.318;2022-11-03T12:37:39;101370.19;;;10.29;55.24
64139;BME280;50435;43.700;-79.318;2022-11-03T12:40:07;101367.07;;;10.20;55.34
64139;BME280;50435;43.700;-79.318;2022-11-03T12:42:34;101363.18;;;10.44;55.26
64139;BME280;50435;43.700;-79.318;2022-11-03T12:45:03;101357.85;;;10.53;55.16
64139;BME280;50435;43.700;-79.318;2022-11-03T12:47:31;101361.44;;;10.37;55.07
64139;BME280;50435;43.700;-79.318;2022-11-03T12:49:58;101366.84;;;10.05;55.18
64139;BME280;50435;43.700;-79.318;2022-11-03T12:52:26;101356.82;;;10.00;55.34